Time;durP1;ratioP1;P1;durP2;ratioP2;P2;SDS_P1;SDS_P2;PMS_P1;PMS_P2;Temp;Humidity;BMP_temperature;BMP_pressure;BME280_temperature;BME280_humidity;BME280_pressure;Samples;Min_cycle;Max_cycle;Signal;HPM_P1;HPM_P2
2022/04/03 00:00:40;;;;;;;1.53;1.30;;;3.40;90.90;;;;;;5028963;28;20474;-75
2022/04/03 00:03:08;;;;;;;1.60;1.50;;;3.40;91.10;;;;;;5031998;28;20458;-76
2022/04/03 00:05:41;;;;;;;1.60;1.40;;;3.40;91.20;;;;;;5029616;28;20469;-76
2022/04/03 00:08:10;;;;;;;1.60;1.40;;;3.40;91.30;;;;;;5031040;28;20479;-76
2022/04/03 00:10:39;;;;;;;1.60;1.30;;;3.40;91.60;;;;;;5028552;28;20898;-76
2022/04/03 00:13:07;;;;;;;1.60;1.50;;;3.40;91.30;;;;;;5029641;28;20726;-76
2022/04/03 00:15:38;;;;;;;1.70;1.60;;;3.40;91.20;;;;;;5029412;28;20475;-76
2022/04/03 00:18:05;;;;;;;1.60;1.40;;;3.40;91.20;;;;;;4991129;28;1110636;-77
2022/04/03 00:20:32;;;;;;;1.57;1.30;;;3.40;91.50;;;;;;5029772;28;20471;-76
2022/04/03 00:23:01;;;;;;;1.60;1.47;;;3.30;91.50;;;;;;5036740;28;20530;-76
2022/04/03 00:25:28;;;;;;;1.53;1.30;;;3.30;91.50;;;;;;5030585;28;20467;-76
2022/04/03 00:27:55;;;;;;;1.60;1.40;;;3.30;91.20;;;;;;5036799;28;20469;-76
2022/04/03 00:30:22;;;;;;;1.60;1.50;;;3.30;91.60;;;;;;5029564;28;20467;-76
2022/04/03 00:32:49;;;;;;;1.70;1.60;;;3.30;91.60;;;;;;5036539;28;20545;-76
2022/04/03 00:35:16;;;;;;;1.53;1.40;;;3.30;91.50;;;;;;5030469;28;20562;-76
2022/04/03 00:37:43;;;;;;;1.53;1.30;;;3.30;91.70;;;;;;5036416;28;20515;-76
2022/04/03 00:40:12;;;;;;;1.60;1.40;;;3.20;91.80;;;;;;5025426;28;20463;-75
2022/04/03 00:42:39;;;;;;;1.60;1.40;;;3.20;91.70;;;;;;5032030;28;20499;-76
2022/04/03 00:45:08;;;;;;;1.60;1.40;;;3.20;92.00;;;;;;5030093;28;20854;-75
2022/04/03 00:47:35;;;;;;;1.50;1.40;;;3.20;92.20;;;;;;5034406;28;20455;-76
2022/04/03 00:50:03;;;;;;;1.60;1.40;;;3.20;92.30;;;;;;5028917;28;20519;-76
2022/04/03 00:52:30;;;;;;;1.60;1.50;;;3.20;92.30;;;;;;5033806;28;20843;-76
2022/04/03 00:54:57;;;;;;;1.60;1.40;;;3.20;92.80;;;;;;5030734;28;20474;-75
2022/04/03 00:57:27;;;;;;;1.60;1.40;;;3.20;92.70;;;;;;5033375;28;20510;-76
2022/04/03 00:59:55;;;;;;;1.70;1.60;;;3.20;93.30;;;;;;5029540;28;20578;-76
2022/04/03 01:02:22;;;;;;;1.53;1.40;;;3.20;93.40;;;;;;5030717;28;20589;-76
2022/04/03 01:04:55;;;;;;;1.60;1.40;;;3.20;93.30;;;;;;5033803;28;20689;-75
2022/04/03 01:07:22;;;;;;;1.57;1.40;;;3.20;93.50;;;;;;5031928;28;20459;-76
2022/04/03 01:09:49;;;;;;;1.60;1.40;;;3.20;93.40;;;;;;5029999;28;20475;-76
2022/04/03 01:12:16;;;;;;;1.57;1.40;;;3.10;93.30;;;;;;5029137;28;20521;-76
2022/04/03 01:14:45;;;;;;;1.57;1.30;;;3.10;93.50;;;;;;5030027;28;20467;-76
2022/04/03 01:17:13;;;;;;;1.60;1.50;;;3.10;93.50;;;;;;5030792;28;20876;-76
2022/04/03 01:19:41;;;;;;;1.60;1.40;;;3.10;93.40;;;;;;5028623;28;20605;-76
2022/04/03 01:22:10;;;;;;;1.60;1.50;;;3.10;93.50;;;;;;5027378;28;20639;-76
2022/04/03 01:24:37;;;;;;;1.60;1.40;;;3.10;93.60;;;;;;5028846;28;20463;-76
2022/04/03 01:27:06;;;;;;;1.60;1.40;;;3.00;93.40;;;;;;5029115;28;20463;-75
2022/04/03 01:29:33;;;;;;;1.60;1.50;;;3.00;93.70;;;;;;5018155;28;20511;-74
2022/04/03 01:31:59;;;;;;;1.60;1.40;;;3.00;93.80;;;;;;5013852;28;20523;-74
2022/04/03 01:34:27;;;;;;;1.50;1.30;;;3.00;94.00;;;;;;5025598;28;20506;-73
2022/04/03 01:37:02;;;;;;;1.50;1.40;;;3.00;93.70;;;;;;5035390;28;20473;-74
2022/04/03 01:39:29;;;;;;;1.60;1.40;;;3.00;94.10;;;;;;5025431;28;20553;-73
2022/04/03 01:41:56;;;;;;;1.60;1.50;;;3.00;94.00;;;;;;5029900;28;20463;-73
2022/04/03 01:44:25;;;;;;;1.63;1.53;;;3.00;93.80;;;;;;5029138;28;20467;-73
2022/04/03 01:46:52;;;;;;;1.60;1.43;;;3.00;94.10;;;;;;5035067;28;20475;-73
2022/04/03 01:49:19;;;;;;;1.57;1.30;;;3.00;94.10;;;;;;5029049;28;20483;-74
2022/04/03 01:51:47;;;;;;;1.60;1.40;;;2.90;94.20;;;;;;5033710;28;20478;-73
2022/04/03 01:54:13;;;;;;;1.67;1.57;;;2.90;94.30;;;;;;5029245;28;20562;-73
2022/04/03 01:56:40;;;;;;;1.60;1.50;;;3.00;94.30;;;;;;5033416;28;20520;-74
2022/04/03 01:59:08;;;;;;;1.60;1.50;;;2.90;94.40;;;;;;5029402;28;21022;-73
2022/04/03 02:01:36;;;;;;;1.57;1.40;;;2.90;94.30;;;;;;5030146;28;20469;-73
2022/04/03 02:04:04;;;;;;;1.53;1.40;;;2.90;94.50;;;;;;5029868;28;20474;-73
2022/04/03 02:06:31;;;;;;;1.60;1.40;;;2.90;94.80;;;;;;5037130;28;20462;-74
2022/04/03 02:08:58;;;;;;;1.60;1.40;;;2.90;94.60;;;;;;5029119;28;21066;-74
2022/04/03 02:11:25;;;;;;;1.57;1.40;;;2.90;94.80;;;;;;5027741;28;20760;-74
2022/04/03 02:13:51;;;;;;;1.63;1.53;;;2.80;94.80;;;;;;5028206;28;20467;-74
2022/04/03 02:16:19;;;;;;;1.60;1.50;;;2.80;95.10;;;;;;5030482;28;21137;-74
2022/04/03 02:18:48;;;;;;;1.60;1.50;;;2.80;95.10;;;;;;5027807;28;20491;-73
2022/04/03 02:21:15;;;;;;;1.53;1.40;;;2.70;95.00;;;;;;5029232;28;20470;-73
2022/04/03 02:23:43;;;;;;;1.60;1.47;;;2.70;95.20;;;;;;5029367;28;20564;-74
2022/04/03 02:26:10;;;;;;;1.70;1.60;;;2.70;95.30;;;;;;5028952;28;20482;-74
2022/04/03 02:28:39;;;;;;;1.60;1.47;;;2.60;95.30;;;;;;5030425;28;20491;-74
2022/04/03 02:31:06;;;;;;;1.57;1.40;;;2.60;95.20;;;;;;5028335;28;20840;-73
2022/04/03 02:33:33;;;;;;;1.70;1.60;;;2.60;95.50;;;;;;5029380;28;20889;-73
2022/04/03 02:36:01;;;;;;;1.57;1.40;;;2.60;95.50;;;;;;5029060;28;20493;-74
2022/04/03 02:38:28;;;;;;;1.57;1.43;;;2.60;95.50;;;;;;5029496;28;20794;-73
2022/04/03 02:40:55;;;;;;;1.57;1.40;;;2.50;95.70;;;;;;5027041;28;20471;-73
2022/04/03 02:43:23;;;;;;;1.60;1.40;;;2.50;95.90;;;;;;5030094;28;20459;-74
2022/04/03 02:45:51;;;;;;;1.57;1.40;;;2.50;95.80;;;;;;5027925;28;20562;-73
2022/04/03 02:48:19;;;;;;;1.70;1.60;;;2.50;95.80;;;;;;5022888;28;21059;-73
2022/04/03 02:50:46;;;;;;;1.60;1.50;;;2.50;95.90;;;;;;5027614;28;20487;-74
2022/04/03 02:53:15;;;;;;;1.60;1.50;;;2.50;96.10;;;;;;5034192;28;20467;-73
2022/04/03 02:55:42;;;;;;;1.57;1.40;;;2.40;96.20;;;;;;5022596;28;20466;-73
2022/04/03 02:58:08;;;;;;;1.60;1.50;;;2.40;95.90;;;;;;5031450;28;20545;-73
2022/04/03 03:00:36;;;;;;;1.70;1.60;;;2.40;96.10;;;;;;5021264;28;20897;-73
2022/04/03 03:03:06;;;;;;;1.60;1.50;;;2.40;95.90;;;;;;5031469;28;20542;-73
2022/04/03 03:05:33;;;;;;;1.60;1.50;;;2.30;95.90;;;;;;5033690;28;20458;-73
2022/04/03 03:08:00;;;;;;;1.60;1.50;;;2.30;96.20;;;;;;5030726;28;20840;-73
2022/04/03 03:10:29;;;;;;;1.67;1.57;;;2.30;96.40;;;;;;5020713;28;20467;-73
2022/04/03 03:12:55;;;;;;;1.60;1.50;;;2.20;96.50;;;;;;5027715;28;20471;-74
2022/04/03 03:15:23;;;;;;;1.60;1.47;;;2.20;96.40;;;;;;5028503;28;20462;-73
2022/04/03 03:17:51;;;;;;;1.57;1.40;;;2.20;96.50;;;;;;5030719;28;20829;-74
2022/04/03 03:20:18;;;;;;;1.57;1.47;;;2.20;96.60;;;;;;5027473;28;20529;-73
2022/04/03 03:22:45;;;;;;;1.70;1.60;;;2.20;96.60;;;;;;5031169;28;20580;-73
2022/04/03 03:25:13;;;;;;;1.70;1.60;;;2.20;96.70;;;;;;5028270;28;20494;-73
2022/04/03 03:27:42;;;;;;;1.60;1.50;;;2.10;97.00;;;;;;5029995;28;20482;-73
2022/04/03 03:30:11;;;;;;;1.60;1.40;;;2.10;97.10;;;;;;5026284;28;21339;-73
2022/04/03 03:32:39;;;;;;;1.60;1.40;;;2.10;96.80;;;;;;5029008;28;21121;-73
2022/04/03 03:35:07;;;;;;;1.70;1.60;;;2.10;97.20;;;;;;5028284;28;20463;-73
2022/04/03 03:37:36;;;;;;;1.60;1.50;;;2.00;97.60;;;;;;5029198;28;20508;-74
2022/04/03 03:40:04;;;;;;;1.60;1.50;;;2.00;97.80;;;;;;5024671;28;20906;-73
2022/04/03 03:42:30;;;;;;;1.60;1.50;;;2.00;97.70;;;;;;5026910;28;21018;-73
2022/04/03 03:45:01;;;;;;;1.60;1.50;;;2.00;97.70;;;;;;5027845;28;20485;-74
2022/04/03 03:47:28;;;;;;;1.70;1.60;;;2.00;97.70;;;;;;5027979;28;20466;-73
2022/04/03 03:49:54;;;;;;;1.70;1.60;;;1.90;98.00;;;;;;5028568;28;20475;-73
2022/04/03 03:52:21;;;;;;;1.70;1.60;;;1.90;98.20;;;;;;5027962;28;20487;-74
2022/04/03 03:54:50;;;;;;;1.80;1.70;;;1.90;98.20;;;;;;5027642;28;20479;-73
2022/04/03 03:57:17;;;;;;;1.70;1.60;;;2.00;98.20;;;;;;5034050;28;20494;-74
2022/04/03 03:59:44;;;;;;;1.60;1.50;;;2.00;98.20;;;;;;5026720;28;20495;-73
2022/04/03 04:02:12;;;;;;;1.57;1.40;;;2.00;98.20;;;;;;5033198;28;20833;-74
2022/04/03 04:04:39;;;;;;;1.60;1.50;;;2.00;98.20;;;;;;5029327;28;20465;-74
2022/04/03 04:07:05;;;;;;;1.60;1.50;;;2.00;98.20;;;;;;5033628;28;20730;-74
2022/04/03 04:09:33;;;;;;;1.60;1.50;;;2.00;98.20;;;;;;5027098;28;20976;-73
2022/04/03 04:12:00;;;;;;;1.60;1.50;;;1.90;98.20;;;;;;5026773;28;20855;-74
2022/04/03 04:14:27;;;;;;;1.57;1.40;;;1.90;98.20;;;;;;5027921;28;20532;-74
2022/04/03 04:16:53;;;;;;;1.60;1.50;;;1.90;98.20;;;;;;5032064;28;20558;-73
2022/04/03 04:19:22;;;;;;;1.60;1.50;;;1.90;98.20;;;;;;5025830;28;20494;-74
2022/04/03 04:21:51;;;;;;;1.70;1.60;;;1.80;98.20;;;;;;5030929;28;20483;-73
2022/04/03 04:24:20;;;;;;;1.60;1.50;;;1.80;98.20;;;;;;5027794;28;20469;-74
2022/04/03 04:26:47;;;;;;;1.60;1.50;;;1.80;98.20;;;;;;5036231;28;20745;-74
2022/04/03 04:29:14;;;;;;;1.60;1.50;;;1.70;98.20;;;;;;5027386;28;20482;-74
2022/04/03 04:31:41;;;;;;;1.70;1.60;;;1.70;98.20;;;;;;5029106;28;20459;-74
2022/04/03 04:34:08;;;;;;;1.60;1.50;;;1.70;98.20;;;;;;5027896;28;20466;-73
2022/04/03 04:36:36;;;;;;;1.70;1.60;;;1.60;98.20;;;;;;5030950;28;20470;-74
2022/04/03 04:39:04;;;;;;;1.60;1.50;;;1.60;98.20;;;;;;5029345;28;20483;-74
2022/04/03 04:41:31;;;;;;;1.80;1.70;;;1.50;98.20;;;;;;5030245;28;20470;-73
2022/04/03 04:43:58;;;;;;;1.63;1.53;;;1.50;98.20;;;;;;5030677;28;20470;-73
2022/04/03 04:46:25;;;;;;;1.70;1.60;;;1.40;98.20;;;;;;5030864;28;20470;-73
2022/04/03 04:48:52;;;;;;;1.70;1.60;;;1.40;98.20;;;;;;5030347;28;20536;-74
2022/04/03 04:51:19;;;;;;;1.80;1.70;;;1.30;98.20;;;;;;5029497;28;20475;-73
2022/04/03 04:53:47;;;;;;;1.70;1.60;;;1.30;98.20;;;;;;5031604;28;20478;-73
2022/04/03 04:56:14;;;;;;;1.60;1.50;;;1.30;98.20;;;;;;5031716;28;20462;-73
2022/04/03 04:58:41;;;;;;;1.70;1.60;;;1.20;98.20;;;;;;5029110;28;20491;-74
2022/04/03 05:01:08;;;;;;;1.70;1.60;;;1.20;98.20;;;;;;5030171;28;20503;-74
2022/04/03 05:03:36;;;;;;;1.70;1.60;;;1.20;98.20;;;;;;5031459;28;20467;-73
2022/04/03 05:06:04;;;;;;;1.60;1.50;;;1.20;98.20;;;;;;5036721;28;20474;-74
2022/04/03 05:08:31;;;;;;;1.60;1.50;;;1.10;98.20;;;;;;5035257;28;20533;-73
2022/04/03 05:11:00;;;;;;;1.60;1.50;;;1.10;98.20;;;;;;5027454;28;20457;-74
2022/04/03 05:13:28;;;;;;;1.70;1.60;;;1.10;98.20;;;;;;5033001;28;20455;-74
2022/04/03 05:15:54;;;;;;;1.80;1.70;;;1.00;98.20;;;;;;5032136;28;20864;-73
2022/04/03 05:18:22;;;;;;;1.80;1.70;;;1.00;98.20;;;;;;5034761;28;20517;-74
2022/04/03 05:20:49;;;;;;;1.70;1.60;;;0.90;98.20;;;;;;5029773;28;20459;-74
2022/04/03 05:23:16;;;;;;;1.70;1.60;;;0.90;98.20;;;;;;5039881;28;21030;-75
2022/04/03 05:25:43;;;;;;;1.70;1.60;;;0.90;98.20;;;;;;5034054;28;20476;-77
2022/04/03 05:28:12;;;;;;;1.67;1.57;;;0.90;98.20;;;;;;5044097;28;21019;-77
2022/04/03 05:30:40;;;;;;;1.70;1.60;;;0.80;98.20;;;;;;5032756;28;20459;-76
2022/04/03 05:33:07;;;;;;;1.60;1.50;;;0.80;98.20;;;;;;5036032;28;20520;-76
2022/04/03 05:35:34;;;;;;;1.80;1.70;;;0.80;98.20;;;;;;5033644;28;20489;-77
2022/04/03 05:38:01;;;;;;;1.60;1.50;;;0.80;98.20;;;;;;5035923;28;20466;-76
2022/04/03 05:40:28;;;;;;;1.70;1.60;;;0.80;98.20;;;;;;5032351;28;20553;-77
2022/04/03 05:42:55;;;;;;;1.70;1.60;;;0.80;98.20;;;;;;5031287;28;20486;-75
2022/04/03 05:45:25;;;;;;;1.70;1.60;;;0.80;98.20;;;;;;5030286;28;20475;-76
2022/04/03 05:47:52;;;;;;;1.70;1.60;;;0.80;98.20;;;;;;5032295;28;20550;-75
2022/04/03 05:50:20;;;;;;;1.60;1.50;;;0.80;98.20;;;;;;5030400;28;20463;-74
2022/04/03 05:52:49;;;;;;;1.70;1.60;;;0.80;98.20;;;;;;5032144;28;20471;-75
2022/04/03 05:55:17;;;;;;;1.60;1.50;;;0.80;98.20;;;;;;5030768;28;20470;-75
2022/04/03 05:57:45;;;;;;;1.97;1.87;;;0.70;98.20;;;;;;5032163;28;20494;-74
2022/04/03 06:00:14;;;;;;;1.60;1.50;;;0.70;98.20;;;;;;5030477;28;20495;-75
2022/04/03 06:02:51;;;;;;;1.63;1.53;;;0.70;98.20;;;;;;5028535;28;20467;-75
2022/04/03 06:05:23;;;;;;;1.80;1.70;;;0.80;98.20;;;;;;5033422;28;20462;-76
2022/04/03 06:07:51;;;;;;;1.60;1.50;;;0.80;98.20;;;;;;5031271;28;20558;-75
2022/04/03 06:10:21;;;;;;;1.67;1.57;;;0.80;98.20;;;;;;5029166;28;20455;-75
2022/04/03 06:13:00;;;;;;;1.70;1.60;;;1.00;98.20;;;;;;5035340;28;21029;-76
2022/04/03 06:15:28;;;;;;;1.60;1.50;;;1.10;98.20;;;;;;5029449;28;20726;-75
2022/04/03 06:17:57;;;;;;;2.27;2.17;;;1.20;98.20;;;;;;5056190;28;20477;-75
2022/04/03 06:20:25;;;;;;;1.60;1.50;;;1.40;98.20;;;;;;5048281;28;20493;-76
2022/04/03 06:22:52;;;;;;;1.60;1.50;;;1.50;98.20;;;;;;5049690;28;20489;-75
2022/04/03 06:25:20;;;;;;;1.70;1.60;;;1.60;98.20;;;;;;5048891;28;20462;-76
2022/04/03 06:27:49;;;;;;;1.60;1.50;;;1.70;98.20;;;;;;5050856;28;20465;-76
2022/04/03 06:30:17;;;;;;;1.60;1.50;;;1.70;98.20;;;;;;5048182;28;20469;-77
2022/04/03 06:32:44;;;;;;;1.67;1.57;;;1.80;98.20;;;;;;5046965;28;20455;-76
2022/04/03 06:35:16;;;;;;;1.70;1.60;;;1.80;98.20;;;;;;5048346;28;20465;-77
2022/04/03 06:37:43;;;;;;;1.70;1.60;;;2.00;98.20;;;;;;5053795;28;20479;-75
2022/04/03 06:40:20;;;;;;;1.70;1.60;;;2.10;98.20;;;;;;5049907;28;20490;-76
2022/04/03 06:42:56;;;;;;;1.60;1.50;;;2.40;98.20;;;;;;5050635;28;20462;-76
2022/04/03 06:45:24;;;;;;;1.60;1.50;;;2.70;98.20;;;;;;5055871;28;20465;-74
2022/04/03 06:47:51;;;;;;;1.50;1.40;;;2.80;98.20;;;;;;5052264;28;20873;-75
2022/04/03 06:50:23;;;;;;;1.57;1.40;;;3.10;98.10;;;;;;5050371;28;20872;-76
2022/04/03 06:52:50;;;;;;;1.70;1.60;;;3.30;97.60;;;;;;5047851;28;20458;-75
2022/04/03 06:55:17;;;;;;;1.60;1.50;;;3.60;98.20;;;;;;5047595;28;20472;-76
2022/04/03 06:58:08;;;;;;;1.60;1.50;;;3.90;97.10;;;;;;5053041;28;20458;-74
2022/04/03 07:00:37;;;;;;;3.70;2.70;;;4.30;96.70;;;;;;5036687;28;20486;-75
2022/04/03 07:03:04;;;;;;;1.63;1.53;;;4.40;94.10;;;;;;5052226;28;20462;-77
2022/04/03 07:05:33;;;;;;;1.57;1.40;;;4.50;94.50;;;;;;5053465;28;20455;-75
2022/04/03 07:08:05;;;;;;;1.60;1.47;;;4.80;92.90;;;;;;5052229;28;21200;-75
2022/04/03 07:10:32;;;;;;;1.60;1.40;;;4.90;92.10;;;;;;5044396;28;20470;-75
2022/04/03 07:12:59;;;;;;;1.50;1.30;;;5.10;93.00;;;;;;5047759;28;20462;-76
2022/04/03 07:15:26;;;;;;;1.60;1.40;;;5.40;92.30;;;;;;5047218;28;20463;-75
2022/04/03 07:17:53;;;;;;;1.50;1.30;;;5.60;91.20;;;;;;5047753;28;20469;-74
2022/04/03 07:20:20;;;;;;;1.57;1.30;;;5.90;91.10;;;;;;5043701;28;20478;-75
2022/04/03 07:22:49;;;;;;;1.53;1.30;;;6.10;90.00;;;;;;5054015;28;20469;-75
2022/04/03 07:25:16;;;;;;;1.53;1.30;;;6.30;89.20;;;;;;5047833;28;20966;-75
2022/04/03 07:27:43;;;;;;;1.53;1.37;;;6.40;87.60;;;;;;5052458;28;20459;-75
2022/04/03 07:30:12;;;;;;;1.53;1.30;;;6.60;86.80;;;;;;5047544;28;20487;-75
2022/04/03 07:32:39;;;;;;;1.60;1.37;;;6.70;86.20;;;;;;5051059;28;20473;-75
2022/04/03 07:35:07;;;;;;;1.50;1.20;;;6.90;86.10;;;;;;5048490;28;20498;-75
2022/04/03 07:37:34;;;;;;;1.50;1.20;;;6.90;84.20;;;;;;5054261;28;20488;-75
2022/04/03 07:40:03;;;;;;;1.50;1.20;;;7.10;85.20;;;;;;5043274;28;20502;-75
2022/04/03 07:42:30;;;;;;;1.60;1.30;;;7.20;84.10;;;;;;5046597;28;20472;-75
2022/04/03 07:44:58;;;;;;;1.50;1.20;;;7.30;83.70;;;;;;5047014;28;20557;-75
2022/04/03 07:47:25;;;;;;;1.60;1.30;;;7.50;83.40;;;;;;5050996;28;20462;-76
2022/04/03 07:49:51;;;;;;;1.60;1.37;;;7.70;82.90;;;;;;5045002;28;21001;-74
2022/04/03 07:52:19;;;;;;;1.50;1.10;;;7.90;82.90;;;;;;5050896;28;20463;-75
2022/04/03 07:54:47;;;;;;;1.50;1.20;;;8.00;82.00;;;;;;5046035;28;20466;-75
2022/04/03 07:57:18;;;;;;;1.60;1.30;;;8.10;80.60;;;;;;5051983;28;20472;-74
2022/04/03 07:59:45;;;;;;;1.60;1.30;;;8.20;80.00;;;;;;5045542;28;20489;-75
2022/04/03 08:02:13;;;;;;;1.53;1.20;;;8.30;80.50;;;;;;5044801;28;20462;-75
2022/04/03 08:04:39;;;;;;;1.60;1.27;;;8.30;79.90;;;;;;5046855;28;20527;-75
2022/04/03 08:07:06;;;;;;;1.60;1.30;;;8.40;80.50;;;;;;5047128;28;20561;-75
2022/04/03 08:09:33;;;;;;;1.50;1.10;;;8.60;80.50;;;;;;5050060;28;20474;-77
2022/04/03 08:12:00;;;;;;;1.60;1.20;;;8.90;78.60;;;;;;5051650;28;20474;-76
2022/04/03 08:14:28;;;;;;;1.50;1.20;;;9.00;78.30;;;;;;5057214;28;20462;-77
2022/04/03 08:16:55;;;;;;;1.50;1.10;;;9.10;78.10;;;;;;5051980;28;20474;-77
2022/04/03 08:19:22;;;;;;;1.50;1.10;;;9.20;76.70;;;;;;5053311;28;20485;-78
2022/04/03 08:21:50;;;;;;;1.50;1.17;;;9.40;77.40;;;;;;5051351;28;20990;-76
2022/04/03 08:24:17;;;;;;;1.50;1.20;;;9.50;76.40;;;;;;5053251;28;20460;-78
2022/04/03 08:26:47;;;;;;;1.50;1.10;;;9.60;76.10;;;;;;5058337;28;20504;-76
2022/04/03 08:29:14;;;;;;;1.50;1.00;;;9.50;76.70;;;;;;5049788;28;20482;-83
2022/04/03 08:31:42;;;;;;;1.50;1.10;;;9.60;76.70;;;;;;5056690;28;20519;-74
2022/04/03 08:34:09;;;;;;;1.50;1.10;;;9.60;76.20;;;;;;5050618;28;20462;-78
2022/04/03 08:36:36;;;;;;;1.50;1.03;;;9.70;75.90;;;;;;5052023;28;20469;-75
2022/04/03 08:39:03;;;;;;;1.50;1.10;;;9.80;75.20;;;;;;5044639;28;21320;-75
2022/04/03 08:41:30;;;;;;;1.50;1.20;;;10.00;75.50;;;;;;5048479;28;20493;-76
2022/04/03 08:43:57;;;;;;;1.50;1.10;;;10.10;74.70;;;;;;5050600;28;20463;-77
2022/04/03 08:46:26;;;;;;;1.50;1.00;;;10.10;74.80;;;;;;5049004;28;20555;-76
2022/04/03 08:48:59;;;;;;;1.50;1.10;;;10.20;75.20;;;;;;5053566;28;20561;-77
2022/04/03 08:51:27;;;;;;;1.50;1.20;;;10.40;74.10;;;;;;5042794;28;20799;-76
2022/04/03 08:53:55;;;;;;;1.50;1.20;;;10.40;73.50;;;;;;5048935;28;20463;-75
2022/04/03 08:56:22;;;;;;;1.50;1.20;;;10.40;70.60;;;;;;5052606;28;20530;-75
2022/04/03 08:58:48;;;;;;;1.60;1.30;;;10.50;73.00;;;;;;5044477;28;20478;-75
2022/04/03 09:01:16;;;;;;;1.50;1.00;;;10.60;72.60;;;;;;5050327;28;20493;-76
2022/04/03 09:03:43;;;;;;;1.50;1.10;;;10.80;72.90;;;;;;5051124;28;20505;-76
2022/04/03 09:06:16;;;;;;;1.50;1.00;;;10.90;70.90;;;;;;5058324;28;20560;-76
2022/04/03 09:08:44;;;;;;;1.50;0.97;;;11.00;68.90;;;;;;5044132;28;20485;-75
2022/04/03 09:11:11;;;;;;;1.50;1.00;;;10.90;68.50;;;;;;5043688;28;20465;-76
2022/04/03 09:13:39;;;;;;;1.50;1.00;;;10.90;66.10;;;;;;5046307;28;20994;-76
2022/04/03 09:16:07;;;;;;;1.50;1.10;;;10.90;67.30;;;;;;5050075;28;20469;-75
2022/04/03 09:18:47;;;;;;;1.50;1.00;;;11.10;68.20;;;;;;5044131;28;20496;-75
2022/04/03 09:21:21;;;;;;;1.50;1.10;;;11.40;66.30;;;;;;5050417;28;20489;-75
2022/04/03 09:24:07;;;;;;;1.50;1.10;;;11.30;65.20;;;;;;5050156;28;20462;-76
2022/04/03 09:26:35;;;;;;;1.50;1.00;;;11.20;65.00;;;;;;5048659;28;20462;-76
2022/04/03 09:29:11;;;;;;;4.20;3.90;;;11.10;65.20;;;;;;5049505;28;20894;-75
2022/04/03 09:31:38;;;;;;;1.50;1.00;;;11.10;65.50;;;;;;5047802;28;20466;-75
2022/04/03 09:34:06;;;;;;;1.50;1.10;;;11.10;64.30;;;;;;5048777;28;20502;-75
2022/04/03 09:36:36;;;;;;;1.50;1.00;;;11.10;66.10;;;;;;5049998;28;20458;-75
2022/04/03 09:39:09;;;;;;;1.50;1.00;;;11.30;67.10;;;;;;5049194;28;20478;-76
2022/04/03 09:41:53;;;;;;;1.50;1.10;;;11.40;67.40;;;;;;5050158;28;20490;-76
2022/04/03 09:44:26;;;;;;;1.50;1.00;;;11.60;66.90;;;;;;5047614;28;20966;-76
2022/04/03 09:47:12;;;;;;;1.50;1.00;;;11.70;64.80;;;;;;5055141;28;20465;-76
2022/04/03 09:49:39;;;;;;;1.50;1.00;;;11.70;64.00;;;;;;5048580;28;20840;-76
2022/04/03 09:52:07;;;;;;;1.50;1.00;;;11.90;62.40;;;;;;5048689;28;20470;-75
2022/04/03 09:54:34;;;;;;;1.50;1.03;;;12.00;64.10;;;;;;5048515;28;20462;-76
2022/04/03 09:57:19;;;;;;;1.50;1.00;;;12.10;62.60;;;;;;5049207;28;20577;-76
2022/04/03 09:59:53;;;;;;;1.50;1.00;;;12.20;64.00;;;;;;5042956;28;20478;-75
2022/04/03 10:02:20;;;;;;;1.50;1.00;;;12.20;64.40;;;;;;5047822;28;20771;-76
2022/04/03 10:04:48;;;;;;;1.50;1.00;;;12.50;63.80;;;;;;5051035;28;20887;-76
2022/04/03 10:07:17;;;;;;;1.50;1.10;;;12.60;63.70;;;;;;5050794;28;20462;-77
2022/04/03 10:09:47;;;;;;;3.87;3.00;;;12.60;63.20;;;;;;5050624;28;20486;-77
2022/04/03 10:12:19;;;;;;;1.50;1.00;;;12.70;64.10;;;;;;5051025;28;20457;-77
2022/04/03 10:14:46;;;;;;;1.50;1.00;;;12.60;63.80;;;;;;5051762;28;20468;-76
2022/04/03 10:17:14;;;;;;;1.50;1.10;;;12.40;64.50;;;;;;5051890;28;20463;-77
2022/04/03 10:19:41;;;;;;;1.50;1.00;;;12.20;63.00;;;;;;5052057;28;21000;-76
2022/04/03 10:22:13;;;;;;;1.50;1.10;;;11.80;64.70;;;;;;5049619;28;20565;-76
2022/04/03 10:24:45;;;;;;;1.50;1.00;;;11.60;65.00;;;;;;5096621;22;20487;-78
2022/04/03 10:27:16;;;;;;;1.50;1.10;;;11.20;64.50;;;;;;5100704;28;20448;-76
2022/04/03 10:29:44;;;;;;;1.50;1.00;;;11.00;66.10;;;;;;5072292;28;20466;-77
2022/04/03 10:32:22;;;;;;;1.50;1.10;;;10.80;65.30;;;;;;5079409;28;20469;-77
2022/04/03 10:34:54;;;;;;;1.50;1.00;;;10.60;66.60;;;;;;5068226;28;20509;-77
2022/04/03 10:37:31;;;;;;;1.50;1.00;;;10.50;66.60;;;;;;5061321;28;20465;-77
2022/04/03 10:40:06;;;;;;;1.50;1.00;;;10.50;67.40;;;;;;5067367;28;20462;-77
2022/04/03 10:42:33;;;;;;;1.50;1.07;;;10.40;66.60;;;;;;5064021;28;20475;-76
2022/04/03 10:45:20;;;;;;;2.53;2.33;;;10.40;68.40;;;;;;5061817;28;20485;-75
2022/04/03 10:47:49;;;;;;;1.50;1.10;;;10.60;68.20;;;;;;5050399;28;20461;-76
2022/04/03 10:50:16;;;;;;;1.50;1.00;;;10.90;68.40;;;;;;5050938;28;20528;-78
2022/04/03 10:52:59;;;;;;;1.50;1.07;;;11.00;67.60;;;;;;5062160;28;20509;-76
2022/04/03 10:55:30;;;;;;;1.50;1.10;;;11.00;68.10;;;;;;5049060;28;20502;-77
2022/04/03 10:58:02;;;;;;;1.43;1.00;;;11.00;66.30;;;;;;5060380;28;20464;-76
2022/04/03 11:00:34;;;;;;;1.50;1.00;;;10.90;65.40;;;;;;5055763;28;20482;-77
2022/04/03 11:03:02;;;;;;;1.50;1.00;;;10.90;67.50;;;;;;5066278;28;20453;-75
2022/04/03 11:05:42;;;;;;;1.47;1.00;;;10.90;67.00;;;;;;5056086;28;20493;-75
2022/04/03 11:08:17;;;;;;;1.50;1.00;;;10.60;67.20;;;;;;5047921;28;20470;-75
2022/04/03 11:10:48;;;;;;;1.50;1.00;;;10.50;69.20;;;;;;5052821;28;20481;-75
2022/04/03 11:13:15;;;;;;;1.50;1.10;;;10.50;69.00;;;;;;5061819;28;20464;-75
2022/04/03 11:15:49;;;;;;;1.47;1.00;;;10.60;68.70;;;;;;5061435;28;20453;-75
2022/04/03 11:18:29;;;;;;;1.50;1.20;;;10.40;67.10;;;;;;5052642;28;20458;-74
2022/04/03 11:21:08;;;;;;;1.50;1.00;;;10.30;69.20;;;;;;5061673;28;21077;-75
2022/04/03 11:23:36;;;;;;;1.50;1.00;;;10.50;69.60;;;;;;5055386;28;20474;-75
2022/04/03 11:26:05;;;;;;;1.50;1.03;;;10.70;69.30;;;;;;5066956;28;20971;-75
2022/04/03 11:28:34;;;;;;;1.50;1.00;;;11.10;69.40;;;;;;5050531;28;22118;-75
2022/04/03 11:31:01;;;;;;;1.50;1.00;;;11.40;65.90;;;;;;5065339;28;20464;-75
2022/04/03 11:33:30;;;;;;;1.50;1.00;;;11.70;65.00;;;;;;5050878;28;20473;-75
2022/04/03 11:36:03;;;;;;;1.50;1.00;;;12.20;66.30;;;;;;5055340;28;20527;-75
2022/04/03 11:38:35;;;;;;;1.50;1.00;;;12.60;68.40;;;;;;5057963;28;20457;-75
2022/04/03 11:41:05;;;;;;;1.50;1.00;;;12.70;65.50;;;;;;5064734;28;20517;-80
2022/04/03 11:43:33;;;;;;;1.50;1.00;;;12.90;67.20;;;;;;5061837;28;20470;-78
2022/04/03 11:46:01;;;;;;;1.50;1.00;;;13.20;66.20;;;;;;5054579;28;20465;-79
2022/04/03 11:48:30;;;;;;;1.50;1.00;;;13.40;65.20;;;;;;5060389;28;20480;-78
2022/04/03 11:51:08;;;;;;;1.50;1.00;;;13.50;65.70;;;;;;5055742;28;20485;-78
2022/04/03 11:53:39;;;;;;;1.50;0.97;;;13.80;65.30;;;;;;5058087;28;20462;-82
2022/04/03 11:56:12;;;;;;;1.50;0.90;;;14.10;64.00;;;;;;5069059;28;20470;-82
2022/04/03 11:58:41;;;;;;;1.50;0.97;;;14.20;63.10;;;;;;5070196;28;21087;-77
2022/04/03 12:01:08;;;;;;;1.50;1.00;;;14.00;61.80;;;;;;5064274;28;20680;-79
2022/04/03 12:03:37;;;;;;;1.50;1.00;;;14.00;63.10;;;;;;5070881;28;20548;-79
2022/04/03 12:06:17;;;;;;;1.50;1.00;;;13.80;64.00;;;;;;5071207;28;20888;-78
2022/04/03 12:08:46;;;;;;;1.57;1.17;;;13.70;62.90;;;;;;5065154;28;21162;-76
2022/04/03 12:11:26;;;;;;;1.47;0.93;;;13.70;64.50;;;;;;5070871;28;20529;-77
2022/04/03 12:13:55;;;;;;;1.50;0.90;;;13.90;65.10;;;;;;5069960;28;20485;-77
2022/04/03 12:16:24;;;;;;;1.47;1.00;;;14.20;64.00;;;;;;5072668;28;20461;-80
2022/04/03 12:18:55;;;;;;;1.50;0.93;;;14.50;63.60;;;;;;5065512;28;20549;-77
2022/04/03 12:21:23;;;;;;;1.50;0.90;;;14.80;61.80;;;;;;5068410;28;20515;-77
2022/04/03 12:24:05;;;;;;;1.50;1.00;;;15.10;63.80;;;;;;5063048;28;20501;-80
2022/04/03 12:26:36;;;;;;;1.50;0.90;;;15.30;62.80;;;;;;5065788;28;20470;-80
2022/04/03 12:29:05;;;;;;;1.50;0.90;;;15.50;63.30;;;;;;5066218;28;20457;-76
2022/04/03 12:31:34;;;;;;;1.50;1.00;;;15.60;62.00;;;;;;5065937;28;20473;-77
2022/04/03 12:34:06;;;;;;;1.50;0.90;;;15.40;60.00;;;;;;5061263;28;21033;-77
2022/04/03 12:36:45;;;;;;;1.50;0.90;;;15.00;61.90;;;;;;5064345;28;20469;-75
2022/04/03 12:39:31;;;;;;;1.47;0.90;;;14.50;62.40;;;;;;5053431;28;20462;-76
2022/04/03 12:42:11;;;;;;;1.50;1.00;;;14.20;63.40;;;;;;5062688;28;21181;-75
2022/04/03 12:44:43;;;;;;;1.50;0.90;;;13.90;63.20;;;;;;5060526;28;20930;-78
2022/04/03 12:47:16;;;;;;;1.47;0.90;;;13.50;63.50;;;;;;5066031;28;20560;-76
2022/04/03 12:49:48;;;;;;;1.50;1.10;;;13.50;65.50;;;;;;5063331;28;20473;-77
2022/04/03 12:52:40;;;;;;;1.50;0.90;;;13.70;64.60;;;;;;5068492;28;20471;-77
2022/04/03 12:55:08;;;;;;;1.50;0.90;;;13.70;64.00;;;;;;5063012;28;20490;-77
2022/04/03 13:00:21;;;;;;;1.50;1.10;;;13.70;63.90;;;;;;5060027;28;20445;-76
2022/04/03 13:02:50;;;;;;;1.50;0.90;;;13.80;65.80;;;;;;5049457;28;20945;-75
2022/04/03 13:05:17;;;;;;;1.50;1.00;;;14.00;65.70;;;;;;5056331;28;20565;-76